Time;durP1;ratioP1;P1;durP2;ratioP2;P2;SDS_P1;SDS_P2;PMS_P1;PMS_P2;Temp;Humidity;BMP_temperature;BMP_pressure;BME280_temperature;BME280_humidity;BME280_pressure;Samples;Min_cycle;Max_cycle;Signal;HPM_P1;HPM_P2
2023/03/07 00:01:07;;;;;;;25.07;16.00;;;3.10;99.90;;;;;;4988558;28;20752;-62
2023/03/07 00:03:35;;;;;;;26.60;16.90;;;3.10;99.90;;;;;;4964458;28;20226;-63
2023/03/07 00:06:07;;;;;;;22.90;15.83;;;3.10;99.90;;;;;;4989712;28;20590;-62
2023/03/07 00:08:35;;;;;;;29.00;17.80;;;3.10;99.90;;;;;;4972452;28;20288;-63
2023/03/07 00:11:05;;;;;;;24.57;16.63;;;3.10;99.90;;;;;;4989941;28;20316;-64
2023/03/07 00:13:35;;;;;;;26.10;16.03;;;3.10;99.90;;;;;;4987457;28;20209;-62
2023/03/07 00:16:03;;;;;;;23.57;15.93;;;3.10;99.90;;;;;;5004890;28;20213;-60
2023/03/07 00:18:31;;;;;;;27.40;17.77;;;3.10;99.90;;;;;;4980474;28;20691;-60
2023/03/07 00:21:10;;;;;;;24.70;16.40;;;3.10;99.90;;;;;;4988459;28;20245;-59
2023/03/07 00:23:39;;;;;;;27.87;18.13;;;3.10;99.90;;;;;;4989985;28;20194;-59
2023/03/07 00:26:10;;;;;;;23.67;15.83;;;3.20;99.90;;;;;;4985704;28;20305;-60
2023/03/07 00:28:38;;;;;;;25.17;15.27;;;3.20;99.90;;;;;;4987363;28;20182;-60
2023/03/07 00:31:08;;;;;;;23.47;15.43;;;3.20;99.90;;;;;;5004738;28;20213;-61
2023/03/07 00:33:36;;;;;;;22.70;15.50;;;3.20;99.90;;;;;;4965232;28;20213;-61
2023/03/07 00:36:14;;;;;;;22.00;14.87;;;3.20;99.90;;;;;;4965113;28;20210;-60
2023/03/07 00:38:42;;;;;;;22.33;14.43;;;3.30;99.90;;;;;;4979744;28;20201;-60
2023/03/07 00:41:11;;;;;;;24.10;16.40;;;3.30;99.90;;;;;;4971234;28;20628;-60
2023/03/07 00:43:39;;;;;;;22.97;14.37;;;3.30;99.90;;;;;;4988923;28;20229;-60
2023/03/07 00:46:07;;;;;;;21.33;14.33;;;3.30;99.90;;;;;;4987403;28;20288;-59
2023/03/07 00:48:37;;;;;;;22.83;14.67;;;3.30;99.90;;;;;;4980181;28;20657;-59
2023/03/07 00:51:06;;;;;;;21.43;14.57;;;3.30;99.90;;;;;;4988398;28;20205;-59
2023/03/07 00:53:34;;;;;;;21.80;14.07;;;3.40;99.90;;;;;;4965408;28;20210;-59
2023/03/07 00:56:08;;;;;;;25.53;16.67;;;3.40;99.90;;;;;;4970663;28;20685;-59
2023/03/07 00:58:35;;;;;;;20.37;14.30;;;3.30;99.90;;;;;;4977755;28;20202;-61
2023/03/07 01:01:04;;;;;;;21.10;14.13;;;3.40;99.90;;;;;;4985738;28;20764;-60
2023/03/07 01:03:33;;;;;;;19.90;13.63;;;3.30;99.90;;;;;;5003605;28;20404;-60
2023/03/07 01:06:21;;;;;;;24.07;14.67;;;3.30;99.90;;;;;;4981164;28;20198;-59
2023/03/07 01:08:49;;;;;;;20.47;14.43;;;3.30;99.90;;;;;;4955210;28;20210;-61
2023/03/07 01:11:16;;;;;;;20.50;13.30;;;3.30;99.90;;;;;;4971152;28;20205;-61
2023/03/07 01:13:44;;;;;;;21.73;14.87;;;3.30;99.90;;;;;;4971227;28;20205;-60
2023/03/07 01:16:15;;;;;;;20.33;13.87;;;3.40;99.90;;;;;;5003459;28;20201;-61
2023/03/07 01:18:43;;;;;;;22.17;13.97;;;3.40;99.90;;;;;;4988724;28;20542;-59
2023/03/07 01:21:17;;;;;;;19.37;13.53;;;3.40;99.90;;;;;;4971455;28;20787;-60
2023/03/07 01:23:45;;;;;;;20.53;13.33;;;3.40;99.90;;;;;;4988545;28;20248;-60
2023/03/07 01:26:18;;;;;;;21.97;14.43;;;3.40;99.90;;;;;;4987705;28;20208;-59
2023/03/07 01:28:46;;;;;;;20.23;13.77;;;3.40;99.90;;;;;;4989089;28;20214;-60
2023/03/07 01:31:13;;;;;;;20.07;14.03;;;3.40;99.90;;;;;;4980178;28;20225;-59
2023/03/07 01:33:40;;;;;;;19.60;13.70;;;3.40;99.90;;;;;;4987551;28;20228;-59
2023/03/07 01:36:24;;;;;;;19.13;12.77;;;3.50;99.90;;;;;;4980366;28;20803;-59
2023/03/07 01:38:55;;;;;;;20.93;14.57;;;3.50;99.90;;;;;;4987320;28;20275;-59
2023/03/07 01:41:23;;;;;;;24.13;16.97;;;3.50;99.90;;;;;;4979055;28;20302;-61
2023/03/07 01:43:51;;;;;;;19.77;14.10;;;3.50;99.90;;;;;;4971761;28;20236;-59
2023/03/07 01:46:30;;;;;;;19.57;14.23;;;3.60;99.90;;;;;;4968609;28;20545;-59
2023/03/07 01:49:02;;;;;;;18.67;14.13;;;3.60;1.00;;;;;;4984026;28;20385;-59
2023/03/07 01:51:33;;;;;;;19.57;13.73;;;3.50;1.00;;;;;;4987663;28;20202;-59
2023/03/07 01:54:05;;;;;;;20.83;14.40;;;3.50;1.00;;;;;;4985636;28;20292;-60
2023/03/07 01:56:33;;;;;;;20.37;14.60;;;3.60;1.00;;;;;;4978838;28;20657;-59
2023/03/07 01:59:00;;;;;;;20.80;15.10;;;3.60;1.00;;;;;;4987166;28;20296;-60
2023/03/07 02:01:27;;;;;;;20.43;13.90;;;3.60;1.00;;;;;;4963016;28;20320;-59
2023/03/07 02:04:10;;;;;;;21.40;13.90;;;3.60;1.00;;;;;;4963446;28;20237;-61
2023/03/07 02:06:38;;;;;;;20.50;13.87;;;3.60;1.00;;;;;;4978550;28;20185;-60
2023/03/07 02:09:12;;;;;;;17.63;12.93;;;3.60;1.00;;;;;;4967461;28;20205;-60
2023/03/07 02:11:43;;;;;;;17.67;13.20;;;3.70;1.00;;;;;;4978106;28;20771;-59
2023/03/07 02:14:10;;;;;;;20.40;14.13;;;3.70;1.00;;;;;;4983265;28;20572;-59
2023/03/07 02:16:38;;;;;;;17.13;13.37;;;3.60;1.00;;;;;;4978522;28;20201;-59
2023/03/07 02:19:35;;;;;;;16.97;13.00;;;3.70;1.00;;;;;;4984495;28;20198;-60
2023/03/07 02:22:12;;;;;;;17.77;13.23;;;3.80;1.00;;;;;;4969075;28;20225;-59
2023/03/07 02:24:44;;;;;;;16.93;12.40;;;3.80;1.00;;;;;;4986153;28;20208;-60
2023/03/07 02:27:13;;;;;;;15.50;11.87;;;3.80;1.00;;;;;;4984731;28;20202;-59
2023/03/07 02:29:40;;;;;;;15.43;11.53;;;3.80;1.00;;;;;;4961821;28;20220;-60
2023/03/07 02:32:08;;;;;;;16.50;11.83;;;3.80;1.00;;;;;;4963711;28;20233;-59
2023/03/07 02:34:35;;;;;;;15.20;10.87;;;3.90;1.00;;;;;;4983649;28;20198;-62
2023/03/07 02:37:23;;;;;;;14.80;11.03;;;3.90;1.00;;;;;;4970245;28;20263;-61
2023/03/07 02:39:53;;;;;;;16.33;11.27;;;3.90;1.00;;;;;;4953995;28;20291;-62
2023/03/07 02:42:24;;;;;;;14.50;11.03;;;3.90;1.00;;;;;;4986131;28;20704;-60
2023/03/07 02:45:02;;;;;;;16.07;11.60;;;4.00;1.00;;;;;;4964006;28;20200;-60
2023/03/07 02:47:32;;;;;;;15.30;11.30;;;4.00;1.00;;;;;;4976672;28;20204;-61
2023/03/07 02:50:00;;;;;;;16.13;11.43;;;3.90;1.00;;;;;;4987602;28;20228;-62
2023/03/07 02:52:28;;;;;;;12.67;10.50;;;3.90;1.00;;;;;;5005153;28;20216;-62
2023/03/07 02:54:57;;;;;;;13.83;11.23;;;4.00;1.00;;;;;;4990772;28;20213;-63
2023/03/07 02:57:28;;;;;;;12.43;9.30;;;4.00;1.00;;;;;;4987583;28;20608;-62
2023/03/07 02:59:55;;;;;;;15.40;10.37;;;4.00;1.00;;;;;;4989196;28;20213;-63
2023/03/07 03:02:22;;;;;;;14.90;11.33;;;4.00;1.00;;;;;;5006974;28;20245;-64
2023/03/07 03:04:49;;;;;;;13.80;11.40;;;4.00;1.00;;;;;;4989084;28;20725;-59
2023/03/07 03:07:17;;;;;;;14.33;11.17;;;4.00;1.00;;;;;;4992271;28;20197;-60
2023/03/07 03:09:44;;;;;;;14.73;11.27;;;4.00;1.00;;;;;;4990272;28;20190;-61
2023/03/07 03:12:11;;;;;;;14.70;11.90;;;4.00;1.00;;;;;;4987211;28;20245;-59
2023/03/07 03:14:38;;;;;;;15.60;11.47;;;4.10;1.00;;;;;;4964035;28;20205;-58
2023/03/07 03:17:05;;;;;;;16.80;12.97;;;4.10;1.00;;;;;;4989921;28;20280;-59
2023/03/07 03:19:32;;;;;;;18.70;13.83;;;4.10;1.00;;;;;;4981556;28;20206;-59
2023/03/07 03:21:59;;;;;;;17.10;13.50;;;4.10;1.00;;;;;;4982642;28;20323;-59
2023/03/07 03:24:30;;;;;;;16.33;13.00;;;4.10;1.00;;;;;;4981534;28;20193;-59
2023/03/07 03:26:57;;;;;;;20.00;16.57;;;4.10;1.00;;;;;;4990927;28;20337;-59
2023/03/07 03:29:26;;;;;;;21.17;16.87;;;4.20;1.00;;;;;;4981429;28;20202;-59
2023/03/07 03:31:57;;;;;;;17.80;14.57;;;4.20;1.00;;;;;;4965987;28;20602;-58
2023/03/07 03:34:24;;;;;;;18.20;12.63;;;4.20;1.00;;;;;;4990378;28;20236;-63
2023/03/07 03:36:51;;;;;;;18.20;14.57;;;4.20;1.00;;;;;;4974038;28;20211;-59
2023/03/07 03:39:19;;;;;;;17.03;12.77;;;4.20;1.00;;;;;;5005911;28;20248;-59
2023/03/07 03:41:51;;;;;;;18.40;14.00;;;4.20;1.00;;;;;;4988740;28;20239;-59
2023/03/07 03:44:21;;;;;;;18.93;14.03;;;4.20;1.00;;;;;;4974179;28;20214;-59
2023/03/07 03:46:48;;;;;;;17.43;13.70;;;4.20;1.00;;;;;;4973453;28;20626;-59
2023/03/07 03:49:18;;;;;;;16.93;13.23;;;4.20;1.00;;;;;;4989316;28;20627;-59
2023/03/07 03:51:48;;;;;;;17.50;13.37;;;4.20;1.00;;;;;;4950284;28;20673;-60
2023/03/07 03:54:16;;;;;;;15.47;12.00;;;4.20;1.00;;;;;;4971573;28;20210;-59
2023/03/07 03:56:43;;;;;;;13.60;10.77;;;4.20;1.00;;;;;;4971837;28;20680;-65
2023/03/07 03:59:10;;;;;;;11.93;9.73;;;4.20;1.00;;;;;;4966370;28;20237;-66
2023/03/07 04:01:37;;;;;;;10.60;8.70;;;4.20;1.00;;;;;;4973380;28;20249;-66
2023/03/07 04:04:05;;;;;;;8.97;7.77;;;4.20;1.00;;;;;;4992325;28;20341;-66
2023/03/07 04:06:33;;;;;;;9.07;7.73;;;4.30;1.00;;;;;;4958961;28;20266;-68
2023/03/07 04:09:03;;;;;;;11.07;8.00;;;4.20;1.00;;;;;;4950814;29;20202;-66
2023/03/07 04:11:31;;;;;;;9.53;7.93;;;4.20;1.00;;;;;;4966625;28;20359;-66
2023/03/07 04:13:58;;;;;;;12.80;7.93;;;4.20;1.00;;;;;;4967030;28;20679;-68
2023/03/07 04:16:26;;;;;;;9.27;8.27;;;4.20;1.00;;;;;;4966050;28;20678;-65
2023/03/07 04:18:54;;;;;;;9.80;7.50;;;4.20;1.00;;;;;;4951776;29;20265;-66
2023/03/07 04:21:21;;;;;;;9.87;7.80;;;4.10;1.00;;;;;;4958379;28;20341;-65
2023/03/07 04:23:54;;;;;;;8.73;7.83;;;4.10;1.00;;;;;;4982574;28;20207;-67
2023/03/07 04:26:23;;;;;;;10.20;8.03;;;4.10;1.00;;;;;;4981953;28;20198;-66
2023/03/07 04:28:50;;;;;;;8.43;7.40;;;4.10;1.00;;;;;;4951445;29;20205;-66
2023/03/07 04:31:24;;;;;;;7.53;6.43;;;4.10;1.00;;;;;;4951134;29;20206;-65
2023/03/07 04:33:52;;;;;;;10.60;6.23;;;4.10;1.00;;;;;;4951464;29;20238;-65
2023/03/07 04:36:20;;;;;;;8.23;6.20;;;4.10;1.00;;;;;;4951612;29;20195;-66
2023/03/07 04:38:49;;;;;;;6.43;5.57;;;4.10;1.00;;;;;;4949551;29;20830;-66
2023/03/07 04:41:19;;;;;;;7.43;5.77;;;4.10;1.00;;;;;;4980559;28;20221;-64
2023/03/07 04:43:49;;;;;;;7.50;5.97;;;4.10;1.00;;;;;;4957362;28;20203;-65
2023/03/07 04:46:17;;;;;;;8.67;6.07;;;4.10;1.00;;;;;;4966172;28;20293;-65
2023/03/07 04:48:46;;;;;;;7.63;6.60;;;4.10;1.00;;;;;;4958261;28;20215;-66
2023/03/07 04:51:13;;;;;;;7.50;6.47;;;4.00;1.00;;;;;;4950345;29;20210;-65
2023/03/07 04:53:40;;;;;;;8.07;6.20;;;4.00;1.00;;;;;;4957912;28;20551;-65
2023/03/07 04:56:08;;;;;;;7.73;6.77;;;4.00;1.00;;;;;;4949434;29;20325;-64
2023/03/07 04:58:37;;;;;;;8.73;7.07;;;3.90;1.00;;;;;;4949718;28;20199;-64
2023/03/07 05:01:05;;;;;;;10.37;8.40;;;4.00;1.00;;;;;;4950542;29;20507;-65
2023/03/07 05:03:34;;;;;;;10.67;7.43;;;3.90;1.00;;;;;;4985841;28;20334;-65
2023/03/07 05:06:04;;;;;;;8.00;6.87;;;3.90;1.00;;;;;;4971650;28;20368;-65
2023/03/07 05:08:32;;;;;;;8.73;6.60;;;3.90;1.00;;;;;;4987075;28;20256;-66
2023/03/07 05:11:00;;;;;;;8.50;7.00;;;3.90;1.00;;;;;;4971896;28;20190;-65
2023/03/07 05:13:28;;;;;;;7.23;6.47;;;3.90;1.00;;;;;;4968491;28;20205;-66
2023/03/07 05:15:57;;;;;;;7.80;6.20;;;3.90;1.00;;;;;;4988046;28;20704;-64
2023/03/07 05:18:25;;;;;;;7.70;6.73;;;3.90;1.00;;;;;;5004107;28;20206;-66
2023/03/07 05:20:54;;;;;;;7.90;7.10;;;3.90;1.00;;;;;;4989249;28;20221;-68
2023/03/07 05:23:22;;;;;;;9.90;8.47;;;3.90;1.00;;;;;;4988176;28;20225;-67
2023/03/07 05:25:50;;;;;;;8.80;7.33;;;3.80;1.00;;;;;;4985926;28;20202;-67
2023/03/07 05:28:18;;;;;;;10.70;8.10;;;3.80;16.40;;;;;;4986557;28;20193;-65
2023/03/07 05:30:46;;;;;;;9.70;8.50;;;3.80;1.00;;;;;;4988994;28;20672;-66
2023/03/07 05:33:13;;;;;;;10.50;8.20;;;3.80;1.00;;;;;;4971911;28;20216;-66
2023/03/07 05:35:41;;;;;;;10.20;8.57;;;3.80;1.00;;;;;;4971770;28;20700;-65
2023/03/07 05:38:10;;;;;;;10.53;9.43;;;3.70;18.50;;;;;;4988231;28;20646;-66
2023/03/07 05:40:38;;;;;;;11.30;9.77;;;3.70;97.70;;;;;;4971180;28;20212;-66
2023/03/07 05:43:06;;;;;;;15.33;13.13;;;3.70;99.90;;;;;;4978869;28;20213;-66
2023/03/07 05:45:34;;;;;;;12.63;10.97;;;3.60;99.90;;;;;;5003297;28;20569;-66
2023/03/07 05:48:01;;;;;;;15.20;12.07;;;3.70;99.90;;;;;;4970820;28;20309;-66
2023/03/07 05:50:29;;;;;;;14.60;11.63;;;3.70;99.90;;;;;;4970809;28;20193;-66
2023/03/07 05:52:57;;;;;;;16.00;11.93;;;3.70;99.90;;;;;;4980408;28;20201;-65
2023/03/07 05:55:27;;;;;;;15.10;11.80;;;3.70;99.90;;;;;;4970076;28;20219;-65
2023/03/07 05:57:54;;;;;;;13.90;12.10;;;3.70;99.90;;;;;;4971400;28;20229;-66
2023/03/07 06:00:21;;;;;;;15.90;12.97;;;3.70;99.90;;;;;;4986029;28;20205;-66
2023/03/07 06:02:54;;;;;;;16.13;12.40;;;3.70;99.90;;;;;;4954969;28;20228;-65
2023/03/07 06:05:21;;;;;;;19.13;15.90;;;3.70;99.90;;;;;;4968777;28;20640;-68
2023/03/07 06:07:51;;;;;;;15.97;13.67;;;3.70;1.00;;;;;;4986616;28;20201;-65
2023/03/07 06:10:18;;;;;;;19.33;15.23;;;3.70;1.00;;;;;;4986413;28;20423;-66
2023/03/07 06:12:52;;;;;;;17.07;14.47;;;3.70;1.00;;;;;;4970483;28;20283;-65
2023/03/07 06:15:20;;;;;;;16.70;14.33;;;3.70;1.00;;;;;;4987882;28;20252;-65
2023/03/07 06:17:52;;;;;;;17.03;14.03;;;3.80;1.00;;;;;;4963178;28;20688;-68
2023/03/07 06:20:19;;;;;;;17.83;14.83;;;3.80;1.00;;;;;;4985390;28;20285;-65
2023/03/07 06:22:47;;;;;;;17.57;14.57;;;3.80;1.00;;;;;;4986589;28;20463;-65
2023/03/07 06:25:15;;;;;;;18.03;14.57;;;3.80;1.00;;;;;;4976076;28;20248;-62
2023/03/07 06:27:43;;;;;;;19.20;14.77;;;3.80;1.00;;;;;;4969850;28;20566;-64
2023/03/07 06:30:11;;;;;;;19.10;15.13;;;3.80;1.00;;;;;;4986956;28;20260;-65
2023/03/07 06:32:38;;;;;;;18.83;15.77;;;3.80;1.00;;;;;;4987363;28;20209;-65
2023/03/07 06:35:06;;;;;;;18.30;15.30;;;3.80;1.00;;;;;;4986825;28;20204;-65
2023/03/07 06:37:33;;;;;;;19.20;15.23;;;3.80;1.00;;;;;;4988088;28;20197;-66
2023/03/07 06:40:05;;;;;;;17.80;13.93;;;3.90;1.00;;;;;;4987259;28;20554;-68
2023/03/07 06:42:34;;;;;;;16.13;13.30;;;3.90;1.00;;;;;;4962029;28;20221;-68
2023/03/07 06:45:02;;;;;;;17.80;13.87;;;3.90;1.00;;;;;;4969818;28;20693;-66
2023/03/07 06:47:29;;;;;;;16.50;13.50;;;3.90;1.00;;;;;;4956861;28;20321;-67
2023/03/07 06:49:56;;;;;;;14.67;12.40;;;3.90;1.00;;;;;;4984110;28;20297;-67
2023/03/07 06:52:23;;;;;;;16.90;13.37;;;3.90;1.00;;;;;;5001588;28;20248;-64
2023/03/07 06:54:51;;;;;;;19.03;13.97;;;3.90;1.00;;;;;;4986529;28;20546;-64
2023/03/07 06:57:18;;;;;;;18.77;13.57;;;3.90;1.00;;;;;;4968397;28;21082;-65
2023/03/07 06:59:45;;;;;;;16.77;13.23;;;3.90;1.00;;;;;;4970398;28;20588;-65
2023/03/07 07:02:13;;;;;;;14.67;12.90;;;3.90;99.90;;;;;;5003287;28;20267;-68
2023/03/07 07:04:40;;;;;;;18.63;12.50;;;3.90;99.90;;;;;;4977198;28;20601;-68
2023/03/07 07:07:07;;;;;;;15.83;12.67;;;3.90;99.90;;;;;;4985317;28;20190;-67
2023/03/07 07:09:34;;;;;;;16.53;12.73;;;3.90;99.90;;;;;;4968196;28;20227;-65
2023/03/07 07:12:03;;;;;;;16.90;13.00;;;3.90;99.90;;;;;;4985276;28;20248;-64
2023/03/07 07:14:33;;;;;;;17.23;12.83;;;3.90;99.90;;;;;;4969915;28;20651;-66
2023/03/07 07:17:00;;;;;;;16.00;13.17;;;3.90;1.00;;;;;;4970210;28;20198;-64
2023/03/07 07:19:27;;;;;;;14.50;12.17;;;3.90;1.00;;;;;;4977091;28;20248;-64
2023/03/07 07:21:56;;;;;;;16.90;13.13;;;3.90;1.00;;;;;;5001337;28;20201;-65
2023/03/07 07:24:23;;;;;;;17.83;14.03;;;3.90;1.00;;;;;;4968671;28;20194;-66
2023/03/07 07:26:52;;;;;;;16.23;12.63;;;3.90;1.00;;;;;;4977244;28;20239;-67
2023/03/07 07:29:19;;;;;;;15.83;13.03;;;3.90;1.00;;;;;;4970156;28;20217;-65
2023/03/07 07:31:48;;;;;;;18.40;13.57;;;3.90;1.00;;;;;;4986189;28;20210;-65
2023/03/07 07:34:17;;;;;;;17.93;14.67;;;3.90;1.00;;;;;;4978366;28;20200;-68
2023/03/07 07:36:45;;;;;;;19.37;14.70;;;4.00;1.00;;;;;;5001528;28;20670;-67
2023/03/07 07:39:14;;;;;;;16.60;13.37;;;4.00;1.00;;;;;;4990981;28;20219;-67
2023/03/07 07:41:43;;;;;;;17.57;13.77;;;4.00;1.00;;;;;;4988863;28;20245;-68
2023/03/07 07:44:11;;;;;;;20.13;15.97;;;4.00;1.00;;;;;;4987388;28;20239;-67
2023/03/07 07:46:51;;;;;;;21.30;16.63;;;4.00;1.00;;;;;;4989811;28;20209;-65
2023/03/07 07:49:18;;;;;;;16.43;13.43;;;4.00;1.00;;;;;;4987176;28;20224;-65
2023/03/07 07:51:45;;;;;;;17.73;13.97;;;4.10;1.00;;;;;;4970290;28;20245;-66
2023/03/07 07:54:12;;;;;;;20.40;14.57;;;4.10;1.00;;;;;;4971270;28;20206;-66
2023/03/07 07:56:40;;;;;;;18.23;14.47;;;4.10;1.00;;;;;;4986646;28;20650;-67
2023/03/07 07:59:07;;;;;;;16.97;13.30;;;4.10;1.00;;;;;;4971258;28;20205;-65
2023/03/07 08:01:34;;;;;;;16.63;13.50;;;4.00;1.00;;;;;;4973088;28;20240;-66
2023/03/07 08:04:01;;;;;;;18.53;14.57;;;4.00;1.00;;;;;;4990245;28;20320;-65
2023/03/07 08:06:28;;;;;;;18.77;15.70;;;4.00;1.00;;;;;;4981014;28;20279;-65
2023/03/07 08:08:55;;;;;;;18.20;15.40;;;4.00;1.00;;;;;;4990773;28;20208;-66
2023/03/07 08:11:23;;;;;;;20.00;15.17;;;4.00;59.10;;;;;;4969240;28;20296;-64
2023/03/07 08:13:50;;;;;;;17.93;14.00;;;4.00;1.00;;;;;;5005054;28;20210;-67
2023/03/07 08:16:21;;;;;;;14.80;11.20;;;4.00;1.00;;;;;;4956859;28;20690;-64
2023/03/07 08:18:54;;;;;;;14.60;10.77;;;3.80;1.00;;;;;;4988862;28;20263;-65
2023/03/07 08:21:25;;;;;;;12.27;9.83;;;3.70;1.00;;;;;;4972212;28;20232;-65
2023/03/07 08:23:53;;;;;;;9.40;7.50;;;3.70;4.10;;;;;;4988839;28;20202;-63
2023/03/07 08:26:21;;;;;;;8.47;7.07;;;3.60;47.50;;;;;;4980007;28;20206;-67
2023/03/07 08:28:48;;;;;;;9.97;7.40;;;3.40;54.00;;;;;;4990070;28;20193;-65
2023/03/07 08:31:17;;;;;;;8.33;7.03;;;3.40;61.00;;;;;;4987076;28;20194;-67
2023/03/07 08:33:48;;;;;;;7.03;5.57;;;3.30;99.90;;;;;;4985545;28;20210;-66
2023/03/07 08:36:15;;;;;;;7.83;6.03;;;3.30;99.90;;;;;;4986735;28;20562;-67
2023/03/07 08:38:42;;;;;;;7.53;5.83;;;3.40;99.90;;;;;;4986363;28;20197;-66
2023/03/07 08:41:09;;;;;;;8.30;6.83;;;3.30;55.70;;;;;;4978287;28;20206;-65
2023/03/07 08:43:38;;;;;;;7.27;5.50;;;3.30;99.90;;;;;;4981299;28;20221;-67
2023/03/07 08:46:05;;;;;;;7.47;5.97;;;3.30;68.40;;;;;;4972211;28;20226;-65
2023/03/07 08:48:32;;;;;;;9.07;5.63;;;3.30;48.30;;;;;;4998188;28;20590;-65
2023/03/07 08:51:05;;;;;;;7.90;6.20;;;3.20;41.00;;;;;;5006185;28;20201;-64
2023/03/07 08:53:32;;;;;;;8.17;6.00;;;3.30;99.90;;;;;;4988563;28;20193;-67
2023/03/07 08:55:59;;;;;;;6.70;5.20;;;3.40;99.90;;;;;;5003589;28;20202;-64
2023/03/07 08:58:27;;;;;;;7.43;6.00;;;3.30;99.90;;;;;;4979633;28;20308;-66
2023/03/07 09:00:54;;;;;;;6.03;5.23;;;3.30;99.90;;;;;;4982706;28;20233;-68
2023/03/07 09:03:20;;;;;;;8.60;5.70;;;3.30;99.90;;;;;;4977373;28;20790;-67
2023/03/07 09:05:48;;;;;;;7.37;5.87;;;3.30;99.90;;;;;;4994968;28;20733;-66
2023/03/07 09:08:15;;;;;;;8.47;5.47;;;3.20;99.90;;;;;;4970993;28;20288;-65
2023/03/07 09:10:42;;;;;;;7.57;5.23;;;3.20;99.90;;;;;;4982788;28;20198;-65
2023/03/07 09:13:11;;;;;;;6.50;5.20;;;3.20;99.90;;;;;;4987442;28;20226;-64
2023/03/07 09:15:39;;;;;;;6.90;5.00;;;3.10;99.90;;;;;;4980937;28;20328;-65
2023/03/07 09:18:07;;;;;;;7.07;5.37;;;3.10;99.90;;;;;;4986382;28;20336;-66
2023/03/07 09:20:34;;;;;;;7.57;5.80;;;3.10;99.90;;;;;;4989187;28;20213;-67
2023/03/07 09:23:01;;;;;;;7.40;5.97;;;3.10;99.90;;;;;;4989485;28;20752;-67
2023/03/07 09:25:29;;;;;;;7.70;5.43;;;3.10;99.90;;;;;;4981809;28;20567;-65
2023/03/07 09:27:56;;;;;;;5.10;4.53;;;3.10;99.90;;;;;;4990065;28;20450;-64
2023/03/07 09:30:25;;;;;;;8.53;5.63;;;3.00;99.90;;;;;;4973294;28;20199;-65
2023/03/07 09:32:56;;;;;;;6.33;5.17;;;3.00;99.90;;;;;;4983499;28;20263;-67
2023/03/07 09:35:23;;;;;;;4.50;3.23;;;3.00;99.90;;;;;;4991542;28;20252;-65
2023/03/07 09:37:50;;;;;;;4.20;3.40;;;2.90;1.00;;;;;;5004865;28;20211;-66
2023/03/07 09:40:24;;;;;;;3.43;2.80;;;3.10;1.00;;;;;;4988262;28;20194;-64
2023/03/07 09:43:04;;;;;;;3.40;2.70;;;2.90;1.00;;;;;;5004184;28;20224;-66
2023/03/07 09:46:18;;;;;;;3.10;2.80;;;2.90;1.00;;;;;;4966319;28;20260;-64
2023/03/07 09:49:12;;;;;;;2.70;2.47;;;2.80;1.00;;;;;;4976266;28;20300;-65
2023/03/07 09:51:46;;;;;;;4.83;3.00;;;2.80;1.00;;;;;;5000515;28;20289;-64
2023/03/07 09:54:43;;;;;;;4.27;3.57;;;2.70;1.00;;;;;;4979722;28;20197;-65
2023/03/07 09:57:46;;;;;;;2.93;2.50;;;2.90;1.00;;;;;;4972825;28;20637;-64
2023/03/07 10:00:26;;;;;;;4.87;2.90;;;3.10;1.00;;;;;;4974329;28;20205;-64
2023/03/07 10:03:17;;;;;;;3.73;3.40;;;3.10;1.00;;;;;;4988589;28;20225;-66
2023/03/07 10:05:50;;;;;;;4.23;3.23;;;3.00;1.00;;;;;;4980632;28;20309;-64
2023/03/07 10:08:20;;;;;;;15.40;11.97;;;3.10;1.00;;;;;;4988752;28;20193;-64
2023/03/07 10:11:05;;;;;;;4.00;3.37;;;3.10;1.00;;;;;;4979537;28;20694;-63
2023/03/07 10:13:53;;;;;;;5.40;3.37;;;3.20;1.00;;;;;;4980317;28;20209;-64
2023/03/07 10:16:43;;;;;;;5.33;4.40;;;3.20;1.00;;;;;;4980699;28;20233;-69
2023/03/07 10:19:16;;;;;;;7.47;6.23;;;3.40;1.00;;;;;;4988383;28;20213;-64
2023/03/07 10:22:08;;;;;;;10.93;8.80;;;3.50;1.00;;;;;;4979954;28;20208;-64
2023/03/07 10:24:54;;;;;;;12.43;11.20;;;3.40;1.00;;;;;;5001655;28;20295;-64
2023/03/07 10:27:28;;;;;;;5.60;3.93;;;3.40;99.90;;;;;;4978708;28;20253;-65
2023/03/07 10:29:58;;;;;;;4.43;3.00;;;3.40;99.90;;;;;;4988461;28;20205;-64
2023/03/07 10:32:39;;;;;;;4.03;2.60;;;3.30;99.90;;;;;;4986697;28;20209;-64
2023/03/07 10:35:11;;;;;;;4.40;2.63;;;3.30;99.90;;;;;;4979479;28;20209;-66
2023/03/07 10:37:58;;;;;;;3.80;2.83;;;3.40;99.90;;;;;;4988738;28;20688;-64
2023/03/07 10:40:43;;;;;;;3.30;3.00;;;3.30;99.90;;;;;;4987438;28;20229;-64
2023/03/07 10:43:30;;;;;;;2.47;2.10;;;3.30;99.90;;;;;;4962380;28;20213;-63
2023/03/07 10:46:22;;;;;;;3.03;2.30;;;3.20;99.90;;;;;;4971966;28;20715;-65
2023/03/07 10:49:25;;;;;;;4.10;2.53;;;3.20;99.90;;;;;;4983019;28;20217;-65
2023/03/07 10:52:25;;;;;;;4.20;2.37;;;3.20;99.90;;;;;;5002894;28;20652;-64
2023/03/07 10:54:53;;;;;;;2.60;2.23;;;3.10;99.90;;;;;;4987366;28;20221;-64
2023/03/07 10:57:26;;;;;;;3.00;2.70;;;3.00;99.90;;;;;;4988429;28;20288;-64
2023/03/07 10:59:53;;;;;;;5.13;2.73;;;3.10;99.90;;;;;;4986653;28;20221;-64
2023/03/07 11:02:43;;;;;;;7.80;3.20;;;3.10;99.90;;;;;;4988458;28;20724;-67
2023/03/07 11:05:31;;;;;;;3.90;3.10;;;3.20;99.90;;;;;;5002955;28;20665;-64
2023/03/07 11:08:00;;;;;;;5.10;3.23;;;3.20;1.00;;;;;;4985979;28;20212;-65
2023/03/07 11:10:38;;;;;;;7.30;3.23;;;3.30;1.00;;;;;;4978448;28;20692;-65
2023/03/07 11:13:17;;;;;;;5.03;3.70;;;3.20;1.00;;;;;;4990871;28;20865;-64
2023/03/07 11:15:45;;;;;;;4.50;4.10;;;3.20;1.00;;;;;;4990940;28;20217;-67
2023/03/07 11:18:38;;;;;;;6.50;4.50;;;3.00;99.90;;;;;;4972357;28;20205;-65
2023/03/07 11:21:05;;;;;;;5.17;4.60;;;2.90;64.20;;;;;;4981469;28;20288;-64
2023/03/07 11:23:32;;;;;;;7.87;4.87;;;2.80;99.90;;;;;;4988843;28;20308;-64
2023/03/07 11:26:20;;;;;;;7.67;3.90;;;2.80;99.90;;;;;;4973773;28;20205;-64
2023/03/07 11:29:04;;;;;;;4.70;4.07;;;2.70;99.90;;;;;;4974146;28;20197;-65
2023/03/07 11:31:38;;;;;;;4.47;3.20;;;2.80;99.90;;;;;;4982976;28;20591;-64
2023/03/07 11:34:11;;;;;;;4.37;3.60;;;2.90;99.90;;;;;;4981463;28;20221;-64
2023/03/07 11:36:42;;;;;;;4.30;3.70;;;2.80;99.90;;;;;;4966739;28;20213;-64
2023/03/07 11:39:30;;;;;;;5.00;4.10;;;2.80;99.90;;;;;;4991537;28;20237;-64
2023/03/07 11:42:15;;;;;;;4.77;3.67;;;2.70;99.90;;;;;;4965617;28;20221;-64
2023/03/07 11:44:53;;;;;;;7.67;4.77;;;2.80;99.90;;;;;;4966245;28;20571;-64
2023/03/07 11:47:27;;;;;;;8.90;7.40;;;2.60;1.00;;;;;;4990308;28;20685;-65
2023/03/07 11:49:53;;;;;;;8.60;7.20;;;2.60;32.60;;;;;;4981922;28;20626;-65
2023/03/07 11:52:42;;;;;;;7.17;5.00;;;2.70;99.90;;;;;;4989600;28;20267;-67
2023/03/07 11:55:37;;;;;;;7.90;7.00;;;2.90;99.90;;;;;;4989164;28;20700;-67
2023/03/07 11:58:21;;;;;;;8.43;7.43;;;2.70;99.90;;;;;;4991924;28;20198;-64
2023/03/07 12:00:54;;;;;;;8.20;6.47;;;2.80;99.90;;;;;;4989631;28;20200;-64
2023/03/07 12:03:27;;;;;;;6.27;5.60;;;2.70;11.70;;;;;;4972614;28;20256;-65
2023/03/07 12:06:21;;;;;;;8.33;6.13;;;2.50;1.00;;;;;;4989187;28;20196;-65
2023/03/07 12:08:58;;;;;;;7.53;5.90;;;2.50;1.00;;;;;;4972343;28;20405;-65
2023/03/07 12:11:43;;;;;;;10.57;8.53;;;2.70;99.90;;;;;;4990350;28;20221;-65
2023/03/07 12:14:22;;;;;;;9.40;7.67;;;2.40;1.00;;;;;;4973518;28;20300;-65
2023/03/07 12:17:13;;;;;;;8.27;7.10;;;2.50;99.90;;;;;;4991474;28;20193;-65
2023/03/07 12:20:09;;;;;;;10.33;8.10;;;2.60;99.90;;;;;;4989298;28;20260;-64
2023/03/07 12:22:54;;;;;;;11.53;8.60;;;2.60;99.90;;;;;;4965089;28;20233;-63
2023/03/07 12:25:43;;;;;;;14.17;9.30;;;2.70;99.90;;;;;;4990180;28;20573;-65
2023/03/07 12:28:10;;;;;;;10.50;7.50;;;2.60;99.90;;;;;;4988308;28;20240;-64
2023/03/07 12:30:56;;;;;;;19.57;11.03;;;2.70;1.00;;;;;;4979656;28;20505;-64
2023/03/07 12:33:33;;;;;;;16.33;9.03;;;2.80;1.00;;;;;;4991634;28;20220;-64
2023/03/07 12:36:05;;;;;;;11.87;7.77;;;2.90;1.00;;;;;;4978301;28;20548;-62
2023/03/07 12:38:38;;;;;;;14.80;9.27;;;2.90;1.00;;;;;;4967402;28;20674;-65
2023/03/07 12:41:34;;;;;;;12.13;9.07;;;3.00;1.00;;;;;;4988622;28;20292;-64
2023/03/07 12:44:20;;;;;;;13.00;8.87;;;2.90;1.00;;;;;;4968581;28;20221;-64
2023/03/07 12:46:59;;;;;;;20.57;12.53;;;2.80;99.90;;;;;;4970419;28;20264;-63
2023/03/07 12:49:34;;;;;;;11.87;9.67;;;2.70;99.80;;;;;;5002744;28;20279;-64
2023/03/07 12:52:38;;;;;;;10.87;9.00;;;2.70;1.00;;;;;;4985075;28;20209;-63
2023/03/07 12:55:41;;;;;;;16.27;11.37;;;2.70;1.00;;;;;;4978799;28;20205;-64
2023/03/07 12:58:19;;;;;;;18.97;13.13;;;2.90;99.90;;;;;;4991124;28;20284;-65
2023/03/07 13:00:52;;;;;;;20.80;14.33;;;2.90;99.90;;;;;;4989586;28;20247;-63
2023/03/07 13:03:55;;;;;;;24.47;16.37;;;3.00;99.90;;;;;;4989784;28;20244;-60
2023/03/07 13:06:25;;;;;;;22.07;14.83;;;3.00;1.00;;;;;;5003282;28;20292;-62
2023/03/07 13:08:56;;;;;;;21.43;14.53;;;3.00;1.00;;;;;;4967977;28;20206;-60
2023/03/07 13:11:28;;;;;;;22.67;14.77;;;3.30;1.00;;;;;;4987063;28;20194;-59
2023/03/07 13:14:05;;;;;;;24.33;16.30;;;3.50;1.00;;;;;;4972387;28;20201;-64
2023/03/07 13:16:38;;;;;;;28.30;17.37;;;3.60;1.00;;;;;;4990320;28;20213;-64